Time;durP1;ratioP1;P1;durP2;ratioP2;P2;SDS_P1;SDS_P2;PMS_P1;PMS_P2;Temp;Humidity;BMP_temperature;BMP_pressure;BME280_temperature;BME280_humidity;BME280_pressure;Samples;Min_cycle;Max_cycle;Signal;HPM_P1;HPM_P2
2022/08/13 00:00:05;;;;;;;3.73;3.50;;;17.50;99.90;;;;;;5043718;28;20206;-54
2022/08/13 00:02:32;;;;;;;3.47;3.27;;;17.50;99.90;;;;;;5049540;28;20205;-54
2022/08/13 00:05:00;;;;;;;3.73;3.53;;;17.50;99.90;;;;;;5048828;28;20255;-54
2022/08/13 00:07:27;;;;;;;3.80;3.47;;;17.60;99.90;;;;;;5047531;28;20190;-54
2022/08/13 00:09:55;;;;;;;3.73;3.60;;;17.70;99.90;;;;;;5044947;28;20210;-54
2022/08/13 00:15:15;;;;;;;4.33;4.10;;;17.80;99.90;;;;;;5046252;28;20630;-54
2022/08/13 00:17:43;;;;;;;3.87;3.67;;;17.70;99.90;;;;;;5049441;28;20226;-54
2022/08/13 00:20:12;;;;;;;3.90;3.80;;;17.60;99.90;;;;;;5043990;28;20194;-55
2022/08/13 00:22:39;;;;;;;4.23;4.03;;;17.50;99.90;;;;;;5046552;28;20209;-54
2022/08/13 00:25:08;;;;;;;5.27;4.00;;;17.50;99.90;;;;;;5046357;28;20288;-54
2022/08/13 00:27:36;;;;;;;2.90;2.80;;;17.50;99.90;;;;;;5044635;28;20205;-54
2022/08/13 00:30:05;;;;;;;3.60;3.40;;;17.40;99.90;;;;;;5042620;28;20617;-54
2022/08/13 00:32:34;;;;;;;18.23;16.53;;;17.40;99.90;;;;;;5045562;28;20247;-54
2022/08/13 00:35:02;;;;;;;9.17;8.57;;;17.30;99.90;;;;;;5048142;28;20283;-54
2022/08/13 00:37:29;;;;;;;3.83;3.73;;;17.20;99.90;;;;;;5050440;28;20213;-54
2022/08/13 00:39:56;;;;;;;4.07;3.73;;;17.10;99.90;;;;;;5043817;28;20293;-54
2022/08/13 00:42:27;;;;;;;4.70;4.50;;;17.00;99.90;;;;;;5046224;28;20257;-54
2022/08/13 00:44:54;;;;;;;5.10;4.77;;;17.00;99.90;;;;;;5046881;28;20270;-54
2022/08/13 00:50:07;;;;;;;5.00;4.60;;;16.90;99.90;;;;;;5049506;28;20200;-54
2022/08/13 00:52:41;;;;;;;3.83;3.73;;;16.80;99.90;;;;;;5045371;28;20668;-54
2022/08/13 00:55:11;;;;;;;4.50;4.30;;;16.80;99.90;;;;;;5044823;28;20272;-54
2022/08/13 00:57:38;;;;;;;3.30;3.10;;;16.80;99.90;;;;;;5045300;28;20275;-54
2022/08/13 01:00:08;;;;;;;3.73;3.53;;;16.80;99.90;;;;;;5045401;28;20229;-54
2022/08/13 01:02:36;;;;;;;4.07;3.87;;;16.80;99.90;;;;;;5049981;28;20201;-54
2022/08/13 01:05:04;;;;;;;3.97;3.87;;;16.80;99.90;;;;;;5043414;28;20224;-54
2022/08/13 01:07:33;;;;;;;4.60;4.40;;;16.80;99.90;;;;;;5049676;28;20542;-54
2022/08/13 01:10:00;;;;;;;4.63;4.43;;;16.80;99.90;;;;;;5045029;28;20784;-54
2022/08/13 01:12:28;;;;;;;4.87;4.57;;;16.80;99.90;;;;;;5047785;28;20198;-53
2022/08/13 01:14:57;;;;;;;5.00;4.53;;;16.90;99.90;;;;;;5044510;28;20288;-54
2022/08/13 01:17:27;;;;;;;4.20;4.03;;;16.70;99.90;;;;;;5050748;28;20217;-54
2022/08/13 01:19:55;;;;;;;4.20;3.87;;;16.70;99.90;;;;;;5045409;28;20205;-54
2022/08/13 01:22:26;;;;;;;3.47;3.37;;;16.50;99.90;;;;;;5037904;28;20206;-54
2022/08/13 01:24:53;;;;;;;5.00;3.70;;;16.50;99.90;;;;;;5048390;28;20209;-54
2022/08/13 01:27:23;;;;;;;3.40;3.20;;;16.50;99.90;;;;;;5043208;28;20263;-54
2022/08/13 01:29:51;;;;;;;4.30;3.90;;;16.40;99.90;;;;;;5043180;28;20194;-54
2022/08/13 01:32:21;;;;;;;3.40;3.13;;;16.40;99.90;;;;;;5048264;28;20255;-54
2022/08/13 01:34:50;;;;;;;3.97;3.77;;;16.40;99.90;;;;;;5048126;28;20197;-54
2022/08/13 01:37:20;;;;;;;3.77;3.57;;;16.30;99.90;;;;;;5040085;28;20226;-54
2022/08/13 01:39:48;;;;;;;3.80;3.70;;;16.30;99.90;;;;;;5039569;28;20202;-54
2022/08/13 01:42:17;;;;;;;3.87;3.67;;;16.30;99.90;;;;;;5043005;28;20194;-54
2022/08/13 01:44:46;;;;;;;2.83;2.67;;;16.30;99.90;;;;;;5041880;28;20259;-54
2022/08/13 01:52:51;;;;;;;3.50;3.30;;;16.30;99.90;;;;;;5025730;28;20191;-54
2022/08/13 01:55:21;;;;;;;2.87;2.77;;;16.30;99.90;;;;;;5048862;28;20273;-54
2022/08/13 01:57:49;;;;;;;2.70;2.50;;;16.30;99.90;;;;;;5051022;28;20308;-54
2022/08/13 02:00:21;;;;;;;2.97;2.77;;;16.30;99.90;;;;;;5051334;28;20275;-54
2022/08/13 02:02:48;;;;;;;2.47;2.47;;;16.20;99.90;;;;;;5049100;28;20198;-54
2022/08/13 02:05:15;;;;;;;2.17;2.10;;;16.20;99.90;;;;;;5051595;28;20252;-54
2022/08/13 02:07:44;;;;;;;2.10;2.10;;;16.20;99.90;;;;;;5052858;28;20190;-54
2022/08/13 02:10:15;;;;;;;2.97;2.87;;;16.10;99.90;;;;;;5053215;28;20200;-54
2022/08/13 02:12:46;;;;;;;2.90;2.80;;;16.10;99.90;;;;;;5050425;28;20321;-54
2022/08/13 02:15:15;;;;;;;2.90;2.70;;;16.00;99.90;;;;;;5051414;28;20243;-54
2022/08/13 02:17:42;;;;;;;3.00;2.53;;;16.00;99.90;;;;;;5050691;28;20226;-54
2022/08/13 02:20:12;;;;;;;2.50;2.37;;;15.90;99.90;;;;;;5053292;28;20237;-54
2022/08/13 02:22:40;;;;;;;2.00;1.90;;;15.90;99.90;;;;;;5050378;28;20288;-54
2022/08/13 02:25:08;;;;;;;2.50;2.40;;;15.90;99.90;;;;;;5045644;28;20222;-54
2022/08/13 02:27:36;;;;;;;2.00;1.73;;;15.90;99.90;;;;;;5051196;28;20213;-54
2022/08/13 02:30:07;;;;;;;2.17;2.17;;;15.90;99.90;;;;;;5048902;28;20621;-54
2022/08/13 02:32:35;;;;;;;2.07;1.97;;;15.90;99.90;;;;;;5041659;28;20217;-54
2022/08/13 02:35:04;;;;;;;2.20;2.17;;;15.90;99.90;;;;;;5044063;28;20218;-54
2022/08/13 02:37:32;;;;;;;1.47;1.47;;;15.90;99.90;;;;;;5052459;28;20221;-54
2022/08/13 02:40:00;;;;;;;1.77;1.67;;;15.90;99.90;;;;;;5051540;28;20197;-54
2022/08/13 02:42:31;;;;;;;1.77;1.67;;;15.90;99.90;;;;;;5049012;28;20194;-54
2022/08/13 02:44:58;;;;;;;3.03;2.43;;;15.90;99.90;;;;;;5046482;28;20198;-54
2022/08/13 02:47:32;;;;;;;1.93;1.83;;;15.90;99.90;;;;;;5046810;28;20260;-54
2022/08/13 02:49:59;;;;;;;2.53;2.33;;;15.90;99.90;;;;;;5049792;28;20217;-54
2022/08/13 02:52:29;;;;;;;2.60;2.50;;;15.90;99.90;;;;;;5046603;28;20198;-54
2022/08/13 02:54:57;;;;;;;2.40;1.83;;;15.90;99.90;;;;;;5039137;28;20202;-54
2022/08/13 02:57:24;;;;;;;1.90;1.90;;;15.80;99.90;;;;;;5044074;28;20250;-54
2022/08/13 02:59:51;;;;;;;2.50;2.40;;;15.70;99.90;;;;;;5039943;28;20734;-54
2022/08/13 03:02:18;;;;;;;2.30;2.20;;;15.60;99.90;;;;;;5038825;28;20290;-54
2022/08/13 03:04:47;;;;;;;2.47;2.37;;;15.60;99.90;;;;;;5039272;28;20210;-54
2022/08/13 03:07:14;;;;;;;2.23;2.23;;;15.50;99.90;;;;;;5036510;28;20731;-54
2022/08/13 03:09:41;;;;;;;2.73;2.63;;;15.50;99.90;;;;;;5039287;28;20198;-54
2022/08/13 03:12:10;;;;;;;3.47;3.17;;;15.50;99.90;;;;;;5047862;28;20644;-54
2022/08/13 03:14:37;;;;;;;3.13;2.93;;;15.40;99.90;;;;;;5040876;28;20293;-54
2022/08/13 03:17:04;;;;;;;2.77;2.67;;;15.40;99.90;;;;;;5039126;28;20272;-54
2022/08/13 03:19:31;;;;;;;2.70;2.60;;;15.40;99.90;;;;;;5042215;28;20194;-54
2022/08/13 03:22:01;;;;;;;2.57;2.47;;;15.30;99.90;;;;;;5042776;28;20275;-54
2022/08/13 03:24:28;;;;;;;2.10;2.10;;;15.20;99.90;;;;;;5037518;28;20198;-54
2022/08/13 03:26:55;;;;;;;3.30;3.10;;;15.20;99.90;;;;;;5043743;28;20747;-54
2022/08/13 03:29:24;;;;;;;3.90;3.70;;;15.20;99.90;;;;;;5037968;28;20270;-54
2022/08/13 03:31:51;;;;;;;3.17;3.07;;;15.30;99.90;;;;;;5038068;28;20798;-54
2022/08/13 03:34:20;;;;;;;3.17;3.07;;;15.20;99.90;;;;;;5041411;28;20221;-54
2022/08/13 03:36:47;;;;;;;3.70;3.60;;;15.20;99.90;;;;;;5050773;28;20233;-54
2022/08/13 03:39:15;;;;;;;4.23;4.00;;;15.20;99.90;;;;;;5038389;28;20218;-54
2022/08/13 03:41:42;;;;;;;4.10;3.70;;;15.30;99.90;;;;;;5037517;28;20623;-54
2022/08/13 03:44:09;;;;;;;3.60;3.50;;;15.20;99.90;;;;;;5034784;28;20222;-54
2022/08/13 03:46:37;;;;;;;4.27;3.97;;;15.20;99.90;;;;;;5039002;28;20300;-54
2022/08/13 03:49:04;;;;;;;4.03;3.83;;;15.10;99.90;;;;;;5047338;28;20194;-54
2022/08/13 03:51:31;;;;;;;3.70;3.50;;;15.10;99.90;;;;;;5037263;28;20221;-54
2022/08/13 03:53:59;;;;;;;4.00;3.60;;;15.00;99.90;;;;;;5047471;28;20206;-54
2022/08/13 03:56:28;;;;;;;3.60;3.30;;;14.90;99.90;;;;;;5037385;28;20225;-54
2022/08/13 03:58:55;;;;;;;5.33;3.73;;;14.80;99.90;;;;;;5042925;28;20325;-53
2022/08/13 04:01:22;;;;;;;3.70;3.60;;;14.80;99.90;;;;;;5036634;28;20285;-54
2022/08/13 04:03:50;;;;;;;3.40;3.10;;;14.70;99.90;;;;;;5034277;28;20202;-54
2022/08/13 04:06:22;;;;;;;3.63;3.40;;;14.70;99.90;;;;;;5036192;28;20226;-54
2022/08/13 04:08:50;;;;;;;3.53;3.33;;;14.70;99.90;;;;;;5036026;28;20190;-54
2022/08/13 04:11:19;;;;;;;4.13;3.80;;;14.70;99.90;;;;;;5038294;28;20206;-54
2022/08/13 04:13:47;;;;;;;3.57;3.27;;;14.70;99.90;;;;;;5038223;28;20198;-54
2022/08/13 04:16:16;;;;;;;3.70;3.50;;;14.70;99.90;;;;;;5038503;28;20214;-54
2022/08/13 04:18:45;;;;;;;4.00;3.70;;;14.70;99.90;;;;;;5034498;28;20301;-54
2022/08/13 04:21:16;;;;;;;4.47;4.37;;;14.70;99.90;;;;;;5032351;28;20257;-54
2022/08/13 04:23:44;;;;;;;4.37;4.17;;;14.70;99.90;;;;;;5031549;28;20200;-54
2022/08/13 04:26:14;;;;;;;3.97;3.77;;;14.70;99.90;;;;;;5033358;28;20320;-54
2022/08/13 04:28:41;;;;;;;4.40;4.00;;;14.80;99.90;;;;;;5044283;28;20296;-54
2022/08/13 04:31:12;;;;;;;4.07;3.87;;;14.80;99.90;;;;;;5042798;28;20620;-54
2022/08/13 04:33:40;;;;;;;4.23;3.93;;;14.80;99.90;;;;;;5040438;28;20691;-54
2022/08/13 04:36:08;;;;;;;3.80;3.50;;;14.70;99.90;;;;;;5043774;28;20291;-54
2022/08/13 04:38:36;;;;;;;3.80;3.70;;;14.80;99.90;;;;;;5036280;28;20313;-54
2022/08/13 04:41:04;;;;;;;3.60;3.50;;;14.80;99.90;;;;;;5041696;28;20227;-54
2022/08/13 04:43:31;;;;;;;3.97;3.77;;;14.90;99.90;;;;;;5038742;28;20263;-54
2022/08/13 04:46:02;;;;;;;3.77;3.67;;;15.00;99.90;;;;;;5044919;28;20317;-52
2022/08/13 04:48:33;;;;;;;4.80;4.50;;;15.10;99.90;;;;;;5038704;28;20191;-53
2022/08/13 04:51:01;;;;;;;4.53;4.23;;;15.10;99.90;;;;;;5041568;28;20204;-54
2022/08/13 04:53:30;;;;;;;4.17;3.87;;;15.40;99.90;;;;;;5031392;28;20202;-54
2022/08/13 04:55:59;;;;;;;3.70;3.60;;;15.70;99.90;;;;;;5032396;28;20225;-54
2022/08/13 04:58:32;;;;;;;3.17;3.07;;;16.20;99.90;;;;;;5034057;28;20652;-54
2022/08/13 05:00:59;;;;;;;4.13;3.83;;;16.60;99.90;;;;;;5035851;28;20208;-54
2022/08/13 05:03:29;;;;;;;3.90;3.60;;;16.80;99.90;;;;;;5039511;28;20719;-54
2022/08/13 05:05:57;;;;;;;4.50;4.10;;;16.70;99.90;;;;;;5037394;28;20229;-54
2022/08/13 05:08:25;;;;;;;3.63;3.53;;;16.50;99.90;;;;;;5038113;28;20656;-54
2022/08/13 05:10:52;;;;;;;3.40;3.20;;;16.20;99.90;;;;;;5039537;28;20671;-54
2022/08/13 05:13:21;;;;;;;3.77;3.53;;;16.30;99.90;;;;;;5031227;28;20198;-54
2022/08/13 05:15:48;;;;;;;5.03;3.57;;;16.40;99.90;;;;;;5038961;28;20787;-54
2022/08/13 05:18:16;;;;;;;3.50;3.40;;;17.30;99.90;;;;;;5038866;28;20242;-54
2022/08/13 05:20:43;;;;;;;3.43;3.23;;;18.20;99.90;;;;;;5045190;28;20220;-54
2022/08/13 05:23:13;;;;;;;3.13;2.87;;;19.00;99.90;;;;;;5047563;28;20717;-54
2022/08/13 05:25:41;;;;;;;2.93;2.83;;;20.00;99.90;;;;;;5037330;28;20320;-54
2022/08/13 05:28:08;;;;;;;2.77;2.63;;;20.80;99.90;;;;;;5038153;28;20268;-55
2022/08/13 05:30:38;;;;;;;2.50;2.50;;;21.60;99.90;;;;;;5041670;28;20203;-55
2022/08/13 05:33:13;;;;;;;3.20;2.93;;;22.20;99.90;;;;;;5046312;28;20628;-54
2022/08/13 05:35:41;;;;;;;2.70;2.60;;;22.90;99.90;;;;;;5045487;28;20223;-55
2022/08/13 05:38:15;;;;;;;2.33;2.33;;;23.40;99.90;;;;;;5042017;28;20699;-54
2022/08/13 05:40:43;;;;;;;2.47;2.40;;;23.60;99.90;;;;;;5045574;28;20312;-54
2022/08/13 05:43:15;;;;;;;2.33;2.23;;;24.00;99.90;;;;;;5039948;28;20210;-54
2022/08/13 05:45:44;;;;;;;2.30;2.20;;;24.20;99.90;;;;;;5048222;28;20228;-54
2022/08/13 05:48:11;;;;;;;2.70;2.50;;;24.80;99.90;;;;;;5037174;28;20537;-55
2022/08/13 05:50:39;;;;;;;2.97;2.87;;;25.10;99.90;;;;;;5040056;28;20214;-54
2022/08/13 05:53:08;;;;;;;3.13;2.90;;;25.40;99.90;;;;;;5043619;28;20229;-54
2022/08/13 05:55:37;;;;;;;3.57;3.47;;;25.20;99.90;;;;;;5041871;28;20714;-54
2022/08/13 05:58:06;;;;;;;2.83;2.63;;;25.30;99.90;;;;;;5049182;28;20673;-54
2022/08/13 06:03:26;;;;;;;3.10;2.90;;;26.10;99.90;;;;;;5035942;28;20850;-55
2022/08/13 06:05:54;;;;;;;3.00;2.90;;;26.20;99.90;;;;;;5046326;28;20255;-54
2022/08/13 06:08:24;;;;;;;2.70;2.63;;;26.50;99.90;;;;;;5036438;28;20229;-54
2022/08/13 06:10:52;;;;;;;2.83;2.63;;;26.60;99.90;;;;;;5040020;28;20612;-54
2022/08/13 06:13:19;;;;;;;2.97;2.70;;;27.20;99.20;;;;;;5036326;28;20297;-54
2022/08/13 06:15:58;;;;;;;2.53;2.53;;;27.60;98.40;;;;;;5037937;28;20225;-54
2022/08/13 06:18:26;;;;;;;4.13;2.23;;;27.80;98.10;;;;;;5041108;28;20226;-54
2022/08/13 06:20:55;;;;;;;2.75;2.65;;;28.20;96.70;;;;;;5040572;28;20199;-54
2022/08/13 06:23:24;;;;;;;4.57;3.17;;;28.10;96.80;;;;;;5041823;28;20427;-54
2022/08/13 06:25:53;;;;;;;3.50;3.38;;;28.50;95.60;;;;;;5048838;28;20653;-54
2022/08/13 06:28:21;;;;;;;2.85;2.70;;;28.50;95.40;;;;;;5050041;28;20205;-54
2022/08/13 06:30:50;;;;;;;2.50;2.30;;;28.70;95.70;;;;;;5045569;28;20252;-54
2022/08/13 06:33:21;;;;;;;2.97;2.78;;;28.80;94.70;;;;;;5044232;28;20280;-54
2022/08/13 06:35:53;;;;;;;2.47;1.85;;;29.10;93.80;;;;;;5040463;28;20228;-54
2022/08/13 06:38:23;;;;;;;2.88;2.78;;;29.40;93.50;;;;;;5044973;28;20198;-55
2022/08/13 06:40:53;;;;;;;2.53;1.98;;;29.70;93.20;;;;;;5045495;28;20633;-55
2022/08/13 06:43:21;;;;;;;2.15;2.05;;;29.60;92.80;;;;;;5047178;28;20289;-54
2022/08/13 06:45:48;;;;;;;1.88;1.77;;;29.70;91.30;;;;;;5046175;28;20230;-54
2022/08/13 06:48:15;;;;;;;2.10;2.00;;;29.60;93.10;;;;;;5051471;28;20214;-55
2022/08/13 06:50:43;;;;;;;2.17;2.03;;;29.50;93.10;;;;;;5050428;28;20320;-55
2022/08/13 06:53:10;;;;;;;2.47;2.35;;;29.20;92.70;;;;;;5048051;28;20263;-54
2022/08/13 06:55:40;;;;;;;2.60;2.50;;;29.00;91.40;;;;;;5049790;28;20243;-54
2022/08/13 06:58:10;;;;;;;3.42;2.00;;;29.40;92.40;;;;;;5053097;28;20202;-55
2022/08/13 07:00:39;;;;;;;4.97;2.45;;;29.90;90.70;;;;;;5051998;28;20259;-54
2022/08/13 07:03:06;;;;;;;1.90;1.88;;;30.40;90.50;;;;;;5051060;28;20200;-54
2022/08/13 07:05:35;;;;;;;2.25;2.15;;;30.80;90.30;;;;;;5048041;28;20890;-55
2022/08/13 07:08:04;;;;;;;1.95;1.90;;;31.10;89.90;;;;;;5044668;28;20280;-55
2022/08/13 07:10:32;;;;;;;3.50;2.58;;;31.60;89.00;;;;;;5045167;28;20198;-55
2022/08/13 07:13:01;;;;;;;2.58;2.38;;;31.00;87.30;;;;;;5052414;28;20202;-54
2022/08/13 07:15:31;;;;;;;2.35;2.35;;;31.40;87.10;;;;;;5048784;28;20224;-55
2022/08/13 07:18:02;;;;;;;3.67;2.15;;;31.10;85.60;;;;;;5040652;28;20202;-55
2022/08/13 07:20:29;;;;;;;1.70;1.60;;;31.30;86.30;;;;;;5046996;28;20304;-55
2022/08/13 07:22:59;;;;;;;2.53;2.33;;;31.50;84.70;;;;;;5041211;28;20199;-54
2022/08/13 07:25:30;;;;;;;2.53;2.28;;;31.60;88.00;;;;;;5040485;28;20735;-55
2022/08/13 07:28:02;;;;;;;3.05;2.13;;;31.70;87.50;;;;;;5041668;28;20206;-55
2022/08/13 07:30:31;;;;;;;2.00;1.92;;;31.20;86.30;;;;;;5032231;28;20723;-55
2022/08/13 07:33:00;;;;;;;2.70;2.50;;;31.70;85.40;;;;;;5032208;28;20207;-54
2022/08/13 07:35:32;;;;;;;2.10;2.00;;;31.50;83.30;;;;;;5032967;28;20230;-54
2022/08/13 07:38:01;;;;;;;1.80;1.80;;;31.80;83.60;;;;;;5032686;28;20731;-55
2022/08/13 07:40:30;;;;;;;1.80;1.73;;;31.80;83.70;;;;;;5049877;28;20244;-54
2022/08/13 07:42:58;;;;;;;2.28;2.17;;;31.90;80.60;;;;;;5050137;28;20201;-54
2022/08/13 07:45:27;;;;;;;2.92;2.72;;;31.90;84.40;;;;;;5046919;28;20222;-54
2022/08/13 07:47:59;;;;;;;3.42;1.75;;;31.50;84.50;;;;;;5052411;28;20294;-54
2022/08/13 07:50:27;;;;;;;3.22;2.55;;;31.40;86.20;;;;;;5042959;28;20190;-54
2022/08/13 07:52:55;;;;;;;2.35;1.90;;;31.70;83.60;;;;;;5045409;28;20629;-54
2022/08/13 07:55:24;;;;;;;2.20;2.13;;;31.70;82.10;;;;;;5036405;28;20272;-55
2022/08/13 07:57:51;;;;;;;3.63;2.03;;;31.80;81.60;;;;;;5031469;28;20304;-54
2022/08/13 08:00:21;;;;;;;2.13;2.03;;;31.80;83.60;;;;;;5041371;28;20283;-55
2022/08/13 08:03:01;;;;;;;2.10;1.98;;;31.70;84.20;;;;;;5040833;28;20195;-55
2022/08/13 08:05:31;;;;;;;2.83;2.53;;;31.90;84.80;;;;;;5043244;28;20328;-55
2022/08/13 08:08:02;;;;;;;1.75;1.73;;;31.00;85.10;;;;;;5044740;28;20225;-54
2022/08/13 08:10:30;;;;;;;1.98;1.98;;;31.00;84.00;;;;;;5033225;28;20260;-54
2022/08/13 08:13:00;;;;;;;2.03;2.03;;;30.90;81.30;;;;;;5037849;28;20198;-55
2022/08/13 08:15:28;;;;;;;2.20;2.10;;;31.50;83.40;;;;;;5042604;28;20768;-54
2022/08/13 08:18:01;;;;;;;1.52;1.52;;;31.80;80.30;;;;;;5048680;28;20213;-54
2022/08/13 08:20:28;;;;;;;1.92;1.83;;;31.90;79.60;;;;;;5048522;28;20214;-56
2022/08/13 08:22:56;;;;;;;2.15;1.98;;;32.30;82.10;;;;;;5046336;28;20202;-55
2022/08/13 08:25:24;;;;;;;1.83;1.83;;;31.90;81.60;;;;;;5049233;28;20256;-55
2022/08/13 08:27:51;;;;;;;1.98;1.98;;;32.40;86.60;;;;;;5050308;28;20255;-55
2022/08/13 08:30:19;;;;;;;1.88;1.77;;;31.90;80.90;;;;;;5049799;28;20197;-55
2022/08/13 08:32:53;;;;;;;1.42;1.42;;;31.80;80.60;;;;;;5050330;28;20632;-55
2022/08/13 08:35:21;;;;;;;2.85;2.45;;;31.70;81.10;;;;;;5049535;28;20308;-55
2022/08/13 08:43:30;;;;;;;1.88;1.77;;;30.80;83.30;;;;;;5042044;28;20201;-55
2022/08/13 08:45:57;;;;;;;1.77;1.67;;;31.00;79.30;;;;;;5043661;28;20626;-55
2022/08/13 08:48:29;;;;;;;2.17;2.00;;;31.20;80.30;;;;;;5047701;28;20283;-54
2022/08/13 08:50:58;;;;;;;2.28;2.17;;;31.40;79.90;;;;;;5050550;28;20202;-54
2022/08/13 08:53:25;;;;;;;3.13;2.10;;;31.50;85.00;;;;;;5046313;28;20275;-54
2022/08/13 08:55:53;;;;;;;2.70;2.53;;;31.00;86.40;;;;;;5047114;28;20228;-54
2022/08/13 08:58:22;;;;;;;2.85;2.65;;;30.60;87.70;;;;;;5049261;28;20363;-54
2022/08/13 09:00:50;;;;;;;2.15;2.05;;;30.00;88.60;;;;;;5038489;28;20220;-54
2022/08/13 09:03:19;;;;;;;2.38;2.13;;;29.70;91.00;;;;;;5034262;28;20244;-54
2022/08/13 09:05:47;;;;;;;2.88;2.72;;;28.60;90.90;;;;;;5034334;28;20226;-54
2022/08/13 09:08:20;;;;;;;2.67;2.58;;;28.50;91.90;;;;;;5046340;28;20201;-55
2022/08/13 09:10:49;;;;;;;2.47;2.38;;;28.60;92.80;;;;;;5046298;28;20204;-54
2022/08/13 09:13:19;;;;;;;2.58;2.38;;;29.20;92.60;;;;;;5042214;28;20224;-54
2022/08/13 09:15:48;;;;;;;2.80;2.67;;;29.20;91.80;;;;;;5044174;28;20609;-54
2022/08/13 09:18:18;;;;;;;4.60;3.05;;;29.20;92.70;;;;;;5048493;28;20679;-54
2022/08/13 09:20:45;;;;;;;3.38;2.67;;;29.70;92.60;;;;;;5051847;28;20259;-55
2022/08/13 09:23:16;;;;;;;2.80;2.25;;;29.70;92.30;;;;;;5052976;28;20255;-55
2022/08/13 09:25:51;;;;;;;2.63;2.53;;;30.30;90.90;;;;;;5050048;28;20229;-54
2022/08/13 09:28:22;;;;;;;2.50;2.30;;;30.30;91.10;;;;;;5049205;28;20353;-54
2022/08/13 09:30:49;;;;;;;2.80;2.53;;;29.50;90.90;;;;;;5052001;28;20256;-54
2022/08/13 09:33:18;;;;;;;2.78;2.78;;;28.90;92.80;;;;;;5053219;28;20678;-54
2022/08/13 09:35:49;;;;;;;1.92;1.83;;;29.00;93.40;;;;;;5053973;28;20685;-54
2022/08/13 09:38:21;;;;;;;3.53;1.70;;;29.60;93.00;;;;;;5047282;28;20205;-54
2022/08/13 09:40:54;;;;;;;2.13;2.13;;;29.80;92.10;;;;;;5050414;28;20582;-54
2022/08/13 09:43:26;;;;;;;2.30;2.20;;;29.50;92.50;;;;;;5046818;28;20217;-54
2022/08/13 09:45:53;;;;;;;2.15;2.08;;;29.20;92.90;;;;;;5050941;28;20218;-54
2022/08/13 09:48:20;;;;;;;3.85;2.10;;;28.80;93.40;;;;;;5050253;28;20247;-54
2022/08/13 09:50:47;;;;;;;2.17;2.08;;;28.60;92.80;;;;;;5050045;28;20225;-56
2022/08/13 09:53:14;;;;;;;2.55;2.08;;;28.60;93.70;;;;;;5053093;28;20202;-54
2022/08/13 09:55:42;;;;;;;4.43;2.50;;;28.20;92.80;;;;;;5050781;28;20221;-54
2022/08/13 09:58:11;;;;;;;1.52;1.52;;;28.50;93.20;;;;;;5046404;28;20218;-55
2022/08/13 10:00:41;;;;;;;2.13;2.03;;;28.70;92.80;;;;;;5039324;28;20316;-54
2022/08/13 10:03:10;;;;;;;1.80;1.70;;;28.70;92.30;;;;;;5046009;28;20198;-54
2022/08/13 10:05:38;;;;;;;2.23;2.23;;;28.60;92.90;;;;;;5045958;28;20291;-54
2022/08/13 10:08:07;;;;;;;2.20;2.10;;;28.80;92.50;;;;;;5048826;28;20734;-54
2022/08/13 10:10:35;;;;;;;2.30;1.90;;;29.30;92.80;;;;;;5043707;28;20521;-54
2022/08/13 10:13:04;;;;;;;1.58;1.58;;;29.00;93.30;;;;;;5049140;28;20267;-54
2022/08/13 10:15:31;;;;;;;2.30;2.30;;;29.30;91.70;;;;;;5045890;28;20239;-54
2022/08/13 10:18:02;;;;;;;2.25;2.05;;;30.10;91.70;;;;;;5047685;28;20551;-54
2022/08/13 10:20:31;;;;;;;2.25;2.08;;;30.10;90.30;;;;;;5046381;28;20248;-54
2022/08/13 10:23:02;;;;;;;2.03;1.90;;;29.60;90.60;;;;;;5051305;28;20202;-54
2022/08/13 10:25:30;;;;;;;1.80;1.70;;;29.10;90.80;;;;;;5050338;28;20229;-54
2022/08/13 10:27:59;;;;;;;1.90;1.83;;;29.40;90.60;;;;;;5046589;28;20206;-54
2022/08/13 10:30:29;;;;;;;2.17;1.65;;;29.60;91.60;;;;;;5047573;28;20194;-55
2022/08/13 10:33:00;;;;;;;1.67;1.48;;;30.10;91.00;;;;;;5045224;28;20201;-55
2022/08/13 10:35:28;;;;;;;1.55;1.50;;;30.10;91.60;;;;;;5045295;28;20249;-55
2022/08/13 10:38:00;;;;;;;2.90;1.65;;;30.60;90.20;;;;;;5042149;28;20202;-55
2022/08/13 10:40:28;;;;;;;2.42;2.20;;;30.40;87.20;;;;;;5039573;28;20831;-55
2022/08/13 10:42:59;;;;;;;1.80;1.80;;;30.60;88.20;;;;;;5037241;28;20199;-55
2022/08/13 10:45:30;;;;;;;1.63;1.63;;;30.50;85.80;;;;;;5033435;28;20364;-55
2022/08/13 10:47:58;;;;;;;1.55;1.42;;;30.40;90.30;;;;;;5044038;28;20287;-55
2022/08/13 10:50:29;;;;;;;1.55;1.55;;;29.70;91.40;;;;;;5037705;28;20192;-54
2022/08/13 10:52:57;;;;;;;1.92;1.88;;;29.70;92.10;;;;;;5042284;28;21191;-55
2022/08/13 10:55:26;;;;;;;3.53;1.90;;;29.60;91.00;;;;;;5043602;28;20221;-54
2022/08/13 10:57:56;;;;;;;1.85;1.75;;;29.30;91.20;;;;;;5041356;28;20226;-55
2022/08/13 11:00:23;;;;;;;1.23;1.23;;;29.40;90.40;;;;;;5047586;28;20234;-55
2022/08/13 11:02:52;;;;;;;1.55;1.52;;;29.30;91.90;;;;;;5051956;28;20233;-55
2022/08/13 11:05:25;;;;;;;1.90;1.90;;;29.10;92.80;;;;;;5047494;28;20221;-54
2022/08/13 11:07:54;;;;;;;1.60;1.60;;;28.30;90.70;;;;;;5043288;28;20680;-54
2022/08/13 11:10:22;;;;;;;1.38;1.38;;;27.90;91.30;;;;;;5045657;28;20249;-55
2022/08/13 11:12:51;;;;;;;1.75;1.65;;;28.20;92.20;;;;;;5034453;28;20198;-55
2022/08/13 11:15:20;;;;;;;2.08;1.90;;;28.60;93.90;;;;;;5043889;28;20228;-54
2022/08/13 11:17:49;;;;;;;1.48;1.48;;;28.10;91.20;;;;;;5052065;28;20202;-54
2022/08/13 11:20:19;;;;;;;1.30;1.30;;;27.80;92.40;;;;;;5047981;28;20241;-55
2022/08/13 11:22:49;;;;;;;1.63;1.52;;;28.00;93.10;;;;;;5051853;28;20252;-55
2022/08/13 11:25:16;;;;;;;1.63;1.38;;;28.10;92.30;;;;;;5048608;28;20221;-55
2022/08/13 11:27:43;;;;;;;1.73;1.63;;;28.10;93.50;;;;;;5049496;28;20206;-55
2022/08/13 11:30:11;;;;;;;2.17;2.00;;;27.80;93.40;;;;;;5050911;28;20202;-55
2022/08/13 11:32:38;;;;;;;2.00;1.30;;;27.20;92.80;;;;;;5042768;28;20264;-55
2022/08/13 11:35:06;;;;;;;2.50;2.40;;;27.40;94.90;;;;;;5034807;28;20221;-54
2022/08/13 11:37:35;;;;;;;3.23;1.70;;;27.10;94.10;;;;;;5039917;28;20244;-55
2022/08/13 11:40:03;;;;;;;1.83;1.73;;;27.10;95.10;;;;;;5040561;28;20546;-54
2022/08/13 11:42:31;;;;;;;1.33;1.33;;;27.00;93.90;;;;;;5038649;28;20289;-55
2022/08/13 11:44:58;;;;;;;1.67;1.57;;;27.00;93.90;;;;;;5036796;28;20203;-54
2022/08/13 11:47:25;;;;;;;1.60;1.37;;;27.10;95.10;;;;;;5039120;28;20198;-54
2022/08/13 11:49:52;;;;;;;2.70;1.57;;;27.10;95.10;;;;;;5032088;28;20199;-54
2022/08/13 11:52:19;;;;;;;1.30;1.30;;;27.20;95.20;;;;;;5039863;28;20206;-55
2022/08/13 11:54:48;;;;;;;1.35;1.35;;;27.10;95.70;;;;;;5039553;28;20206;-54
2022/08/13 11:57:15;;;;;;;3.67;1.70;;;27.10;95.90;;;;;;5041886;28;20202;-55
2022/08/13 11:59:43;;;;;;;1.55;1.20;;;27.40;95.60;;;;;;5046848;28;20202;-55
2022/08/13 12:02:10;;;;;;;3.03;1.17;;;27.50;93.80;;;;;;5042298;28;20236;-55
2022/08/13 12:04:38;;;;;;;3.03;1.50;;;27.50;95.00;;;;;;5035142;28;20198;-54
2022/08/13 12:07:05;;;;;;;2.35;1.10;;;27.50;95.20;;;;;;5037889;28;20226;-55
2022/08/13 12:09:32;;;;;;;1.42;1.42;;;27.40;94.20;;;;;;5037641;28;20263;-55
2022/08/13 12:12:00;;;;;;;1.67;1.27;;;27.40;94.00;;;;;;5042738;28;20194;-54
2022/08/13 12:14:27;;;;;;;1.52;1.42;;;27.40;94.20;;;;;;5042629;28;20608;-54
2022/08/13 12:16:56;;;;;;;1.37;1.37;;;27.30;95.10;;;;;;5044463;28;20221;-54
2022/08/13 12:19:23;;;;;;;2.20;0.93;;;27.30;93.40;;;;;;5046575;28;20659;-55
2022/08/13 12:21:50;;;;;;;1.20;1.13;;;27.10;93.60;;;;;;5049590;28;20228;-55
2022/08/13 12:24:17;;;;;;;1.57;1.50;;;27.00;95.90;;;;;;5039895;28;20244;-54
2022/08/13 12:26:44;;;;;;;1.50;1.50;;;27.20;95.30;;;;;;5048084;28;20710;-55
2022/08/13 12:29:13;;;;;;;1.63;1.20;;;27.40;95.40;;;;;;5041570;28;20216;-54
2022/08/13 12:31:40;;;;;;;1.33;1.33;;;27.50;94.10;;;;;;5045145;28;20219;-54
2022/08/13 12:34:07;;;;;;;1.20;1.20;;;27.50;94.90;;;;;;5048236;28;20232;-54
2022/08/13 12:36:34;;;;;;;1.38;1.27;;;27.50;95.10;;;;;;5046776;28;20222;-55
2022/08/13 12:39:01;;;;;;;1.80;1.70;;;27.60;94.60;;;;;;5047602;28;20247;-55
2022/08/13 12:41:30;;;;;;;1.90;1.80;;;27.70;92.60;;;;;;5039943;28;20217;-55
2022/08/13 12:43:57;;;;;;;1.10;1.10;;;27.60;93.20;;;;;;5049752;28;20217;-55
2022/08/13 12:46:25;;;;;;;1.48;1.38;;;27.80;94.60;;;;;;5049523;28;20221;-55
2022/08/13 12:48:52;;;;;;;1.42;1.38;;;27.80;93.90;;;;;;5047548;28;20205;-54
2022/08/13 12:51:19;;;;;;;1.10;1.10;;;27.80;93.50;;;;;;5048021;28;20190;-55
2022/08/13 12:53:46;;;;;;;1.00;1.00;;;27.70;92.50;;;;;;5041012;28;20249;-55
2022/08/13 12:56:13;;;;;;;1.00;1.00;;;27.40;92.10;;;;;;5041942;28;20221;-54
2022/08/13 12:58:40;;;;;;;0.90;0.90;;;27.20;92.50;;;;;;5044605;28;20201;-55
2022/08/13 13:01:07;;;;;;;1.40;1.27;;;27.10;92.50;;;;;;5048784;28;20585;-54
2022/08/13 13:03:36;;;;;;;0.80;0.80;;;27.10;92.50;;;;;;5049533;28;20210;-55
2022/08/13 13:06:03;;;;;;;1.13;1.00;;;27.10;92.90;;;;;;5048200;28;20956;-55
2022/08/13 13:08:31;;;;;;;1.67;0.90;;;27.20;93.00;;;;;;5047479;28;20210;-55
2022/08/13 13:11:02;;;;;;;1.50;0.80;;;27.40;93.40;;;;;;5035642;28;20305;-54
2022/08/13 13:13:29;;;;;;;0.87;0.87;;;27.50;91.90;;;;;;5041590;28;20209;-55